createdAt,value
2023-01-05T00:03:15.037Z,11
2023-01-05T00:18:24.724Z,10.9
2023-01-05T00:33:34.388Z,10.9
2023-01-05T00:48:43.816Z,10.9
2023-01-05T01:03:53.248Z,10.9
2023-01-05T01:19:05.251Z,10.9
2023-01-05T01:34:15.668Z,10.7
2023-01-05T01:49:25.809Z,10.7
2023-01-05T02:04:35.440Z,10.8
2023-01-05T02:19:45.471Z,10.5
2023-01-05T02:34:54.766Z,10.3
2023-01-05T02:50:03.905Z,10.2
2023-01-05T03:05:15.043Z,10.1
2023-01-05T03:20:24.202Z,10.1
2023-01-05T03:35:33.963Z,10.1
2023-01-05T03:50:44.864Z,10.1
2023-01-05T04:05:54.933Z,10
2023-01-05T04:21:04.807Z,9.9
2023-01-05T04:39:34.091Z,10.8
2023-01-05T04:54:45.420Z,9.9
2023-01-05T05:09:55.044Z,9.9
2023-01-05T05:25:04.481Z,9.9
2023-01-05T05:40:15.345Z,9.8
2023-01-05T05:55:24.482Z,9.8
2023-01-05T06:10:34.067Z,9.7
2023-01-05T06:25:44.405Z,9.5
2023-01-05T06:40:55.132Z,9.5
2023-01-05T06:56:04.599Z,9.5
2023-01-05T07:11:15.283Z,9.5
2023-01-05T07:26:27.598Z,9.5
2023-01-05T07:41:37.616Z,9.5
2023-01-05T07:56:50.133Z,9.5
2023-01-05T08:12:00.182Z,9.5
2023-01-05T08:27:10.267Z,9.6
2023-01-05T08:42:20.216Z,9.6
2023-01-05T08:57:30.469Z,9.6
2023-01-05T09:14:53.361Z,10.4
2023-01-05T09:30:03.792Z,10
2023-01-05T09:45:15.989Z,10.1
2023-01-05T10:00:26.220Z,10.1
2023-01-05T10:15:42.868Z,10.1
2023-01-05T10:30:57.371Z,10.1
2023-01-05T11:02:02.784Z,10
2023-01-05T11:17:14.068Z,9.9
2023-01-05T11:32:24.114Z,9.4
2023-01-05T11:47:39.617Z,9.2
2023-01-05T12:02:54.746Z,9.1
2023-01-05T12:18:09.808Z,9.1
2023-01-05T12:49:27.220Z,9.4
2023-01-05T13:04:41.594Z,9.3
2023-01-05T13:20:06.459Z,9.4
2023-01-05T13:35:19.363Z,9.4
2023-01-05T13:50:29.645Z,9.3
2023-01-05T14:05:39.738Z,9.2
2023-01-05T14:20:53.766Z,9.1
2023-01-05T14:36:07.238Z,9
2023-01-05T14:51:17.930Z,8.8
2023-01-05T15:06:27.703Z,8.7
2023-01-05T15:21:37.880Z,8.8
2023-01-05T15:36:47.719Z,8.8
2023-01-05T15:51:57.961Z,8.9
2023-01-05T16:07:07.781Z,8.9
2023-01-05T16:22:17.820Z,8.9
2023-01-05T16:37:28.083Z,8.9
2023-01-05T16:52:46.165Z,8.9
2023-01-05T17:07:56.695Z,8.8
2023-01-05T17:23:06.716Z,8.8
2023-01-05T17:38:16.788Z,8.8
2023-01-05T17:53:27.344Z,8.8
2023-01-05T18:08:37.606Z,8.8
2023-01-05T18:23:48.199Z,8.9
2023-01-05T18:38:58.678Z,8.9
2023-01-05T18:54:08.527Z,8.9
2023-01-05T19:09:19.422Z,8.9
2023-01-05T19:24:30.010Z,9
2023-01-05T19:39:40.199Z,9
2023-01-05T19:54:50.110Z,9.1
2023-01-05T20:10:00.678Z,9.1
2023-01-05T20:25:10.731Z,9.1
2023-01-05T20:40:22.439Z,9.1
2023-01-05T20:55:32.673Z,9.1
2023-01-05T21:10:43.115Z,9
2023-01-05T21:26:05.250Z,8.9
2023-01-05T21:41:25.374Z,8.9
2023-01-05T21:56:35.349Z,8.9
2023-01-05T22:11:45.795Z,8.9
2023-01-05T22:26:56.461Z,9
2023-01-05T22:42:06.492Z,9.1
2023-01-05T22:57:16.973Z,9.1
2023-01-05T23:12:27.313Z,9.1
2023-01-05T23:27:38.129Z,9.1
2023-01-05T23:42:48.176Z,9.1
2023-01-05T23:57:58.727Z,9.1
